Arlee, Montana
Current Conditions -  °F | °C
As of 8:53 AM on Friday 21 Nov 2014 (Local Time) from KMSO Reporting Station
Overcast Overcast  
Wind Chill: 28°   Ceiling: 6000
Heat Index: 28°   Visibility: 7mi
Dew Point: 26°   Wind: 0mph
Humidity: 92%   Direction: NA
Pressure: 29.95"   Gusts: NA
Location:  47.16°N, 114.09°W
Report Text: KMSO 211553Z 00000KT 7SM OVC060 M02/M03 A2995 RMK AO2 SLP176 T10221033
Loading
Personal Weather Stations






























Interactive Weather Map New forecast layout! Learn more

10-Day Weather Forecast

Advertisements
Track Severe Weather on mobile